Terminal Aerodrome Forecast
Issued by NWS Cleveland, OH

Home | Current Version | Previous Version | Text Only | Print | Product List | Glossary Off
Versions: 1 2 3 4 5 6 7 8 9 10 11 12 13 14 15 16

901
FTUS41 KCLE 040527
TAFTOL
TAF
KTOL 040527Z 0406/0506 27014G22KT P6SM OVC015
     FM041100 27012KT P6SM OVC025
     FM042000 27012KT P6SM SCT035
     FM050100 27005KT P6SM SKC=

USA.gov is the U.S. government's official web portal to all federal, state and local government web resources and services.